sensor_id;sensor_type;location;lat;lon;timestamp;pressure;altitude;pressure_sealevel;temperature;humidity
42411;BME280;28056;51.112;0.984;2022-12-07T00:01:48;101330.83;;;5.65;55.30
42411;BME280;28056;51.112;0.984;2022-12-07T00:04:17;101330.45;;;5.65;56.13
42411;BME280;28056;51.112;0.984;2022-12-07T00:06:47;101328.06;;;5.38;56.75
42411;BME280;28056;51.112;0.984;2022-12-07T00:09:18;101329.06;;;5.16;57.07
42411;BME280;28056;51.112;0.984;2022-12-07T00:11:49;101330.84;;;5.52;57.22
42411;BME280;28056;51.112;0.984;2022-12-07T00:14:29;101327.09;;;5.35;57.70
42411;BME280;28056;51.112;0.984;2022-12-07T00:16:56;101323.84;;;5.22;57.97
42411;BME280;28056;51.112;0.984;2022-12-07T00:19:23;101324.06;;;5.54;57.29
42411;BME280;28056;51.112;0.984;2022-12-07T00:21:51;101316.99;;;5.24;57.66
42411;BME280;28056;51.112;0.984;2022-12-07T00:24:18;101323.01;;;5.13;57.79
42411;BME280;28056;51.112;0.984;2022-12-07T00:26:45;101317.56;;;5.20;57.90
42411;BME280;28056;51.112;0.984;2022-12-07T00:29:16;101317.94;;;5.23;57.89
42411;BME280;28056;51.112;0.984;2022-12-07T00:31:43;101315.98;;;4.93;58.34
42411;BME280;28056;51.112;0.984;2022-12-07T00:34:13;101313.23;;;4.77;58.77
42411;BME280;28056;51.112;0.984;2022-12-07T00:36:41;101314.59;;;5.46;57.84
42411;BME280;28056;51.112;0.984;2022-12-07T00:39:09;101312.96;;;5.42;57.80
42411;BME280;28056;51.112;0.984;2022-12-07T00:41:36;101312.22;;;5.45;57.70
42411;BME280;28056;51.112;0.984;2022-12-07T00:44:04;101312.66;;;5.35;57.74
42411;BME280;28056;51.112;0.984;2022-12-07T00:46:31;101307.51;;;5.52;57.43
42411;BME280;28056;51.112;0.984;2022-12-07T00:48:59;101305.96;;;5.10;57.89
42411;BME280;28056;51.112;0.984;2022-12-07T00:51:26;101306.48;;;5.36;57.45
42411;BME280;28056;51.112;0.984;2022-12-07T00:53:54;101306.27;;;5.55;57.30
42411;BME280;28056;51.112;0.984;2022-12-07T00:56:23;101308.62;;;5.29;57.47
42411;BME280;28056;51.112;0.984;2022-12-07T00:58:52;101307.73;;;5.19;58.12
42411;BME280;28056;51.112;0.984;2022-12-07T01:04:48;101306.64;;;5.29;57.29
42411;BME280;28056;51.112;0.984;2022-12-07T01:07:15;101307.49;;;5.61;56.79
42411;BME280;28056;51.112;0.984;2022-12-07T01:09:43;101307.22;;;5.51;56.96
42411;BME280;28056;51.112;0.984;2022-12-07T01:12:10;101305.09;;;5.37;57.07
42411;BME280;28056;51.112;0.984;2022-12-07T01:14:38;101302.84;;;5.43;57.32
42411;BME280;28056;51.112;0.984;2022-12-07T01:17:05;101300.85;;;5.19;57.50
42411;BME280;28056;51.112;0.984;2022-12-07T01:19:32;101298.11;;;4.44;59.57
42411;BME280;28056;51.112;0.984;2022-12-07T01:21:59;101296.18;;;3.63;62.15
42411;BME280;28056;51.112;0.984;2022-12-07T01:24:27;101295.32;;;4.53;59.40
42411;BME280;28056;51.112;0.984;2022-12-07T01:26:54;101299.94;;;4.81;59.04
42411;BME280;28056;51.112;0.984;2022-12-07T01:29:21;101297.55;;;4.62;59.47
42411;BME280;28056;51.112;0.984;2022-12-07T01:31:49;101299.37;;;4.95;58.61
42411;BME280;28056;51.112;0.984;2022-12-07T01:34:16;101301.75;;;4.90;58.29
42411;BME280;28056;51.112;0.984;2022-12-07T01:36:44;101299.27;;;5.12;58.11
42411;BME280;28056;51.112;0.984;2022-12-07T01:39:11;101302.54;;;5.42;57.49
42411;BME280;28056;51.112;0.984;2022-12-07T01:41:40;101300.35;;;5.62;57.13
42411;BME280;28056;51.112;0.984;2022-12-07T01:44:12;101302.74;;;5.43;57.57
42411;BME280;28056;51.112;0.984;2022-12-07T01:46:43;101297.47;;;5.44;57.06
42411;BME280;28056;51.112;0.984;2022-12-07T01:49:14;101296.97;;;5.71;56.70
42411;BME280;28056;51.112;0.984;2022-12-07T01:51:43;101295.42;;;5.64;56.34
42411;BME280;28056;51.112;0.984;2022-12-07T01:54:15;101294.20;;;5.34;57.35
42411;BME280;28056;51.112;0.984;2022-12-07T01:56:49;101297.22;;;5.52;56.79
42411;BME280;28056;51.112;0.984;2022-12-07T01:59:18;101295.19;;;5.84;56.50
42411;BME280;28056;51.112;0.984;2022-12-07T02:01:47;101298.30;;;5.57;56.64
42411;BME280;28056;51.112;0.984;2022-12-07T02:04:14;101300.00;;;5.54;57.05
42411;BME280;28056;51.112;0.984;2022-12-07T02:06:43;101299.69;;;5.50;56.86
42411;BME280;28056;51.112;0.984;2022-12-07T02:09:11;101300.45;;;5.79;56.78
42411;BME280;28056;51.112;0.984;2022-12-07T02:11:39;101298.74;;;6.03;56.38
42411;BME280;28056;51.112;0.984;2022-12-07T02:14:07;101300.51;;;5.52;56.83
42411;BME280;28056;51.112;0.984;2022-12-07T02:16:41;101296.54;;;5.52;56.84
42411;BME280;28056;51.112;0.984;2022-12-07T02:19:35;101292.66;;;5.54;57.22
42411;BME280;28056;51.112;0.984;2022-12-07T02:22:18;101292.04;;;5.31;57.49
42411;BME280;28056;51.112;0.984;2022-12-07T02:24:55;101292.09;;;5.57;57.31
42411;BME280;28056;51.112;0.984;2022-12-07T02:27:37;101292.55;;;5.21;57.40
42411;BME280;28056;51.112;0.984;2022-12-07T02:30:06;101292.95;;;5.50;57.28
42411;BME280;28056;51.112;0.984;2022-12-07T02:32:43;101289.30;;;5.65;56.98
42411;BME280;28056;51.112;0.984;2022-12-07T02:35:17;101290.38;;;5.32;57.30
42411;BME280;28056;51.112;0.984;2022-12-07T02:37:53;101291.01;;;5.83;56.86
42411;BME280;28056;51.112;0.984;2022-12-07T02:40:27;101288.95;;;5.20;57.35
42411;BME280;28056;51.112;0.984;2022-12-07T02:43:00;101286.68;;;4.63;59.07
42411;BME280;28056;51.112;0.984;2022-12-07T02:45:31;101285.81;;;5.09;58.20
42411;BME280;28056;51.112;0.984;2022-12-07T02:48:00;101287.33;;;4.41;59.83
42411;BME280;28056;51.112;0.984;2022-12-07T02:50:29;101282.74;;;4.98;59.21
42411;BME280;28056;51.112;0.984;2022-12-07T02:52:56;101282.30;;;5.13;58.57
42411;BME280;28056;51.112;0.984;2022-12-07T02:55:29;101280.77;;;4.95;59.13
42411;BME280;28056;51.112;0.984;2022-12-07T02:58:13;101279.79;;;5.01;58.65
42411;BME280;28056;51.112;0.984;2022-12-07T03:00:55;101272.25;;;4.93;59.40
42411;BME280;28056;51.112;0.984;2022-12-07T03:03:29;101273.19;;;4.27;60.41
42411;BME280;28056;51.112;0.984;2022-12-07T03:06:07;101275.63;;;4.78;59.72
42411;BME280;28056;51.112;0.984;2022-12-07T03:08:45;101276.33;;;4.29;60.50
42411;BME280;28056;51.112;0.984;2022-12-07T03:11:17;101272.66;;;4.57;60.10
42411;BME280;28056;51.112;0.984;2022-12-07T03:13:53;101268.20;;;4.67;60.29
42411;BME280;28056;51.112;0.984;2022-12-07T03:16:26;101267.73;;;4.31;60.46
42411;BME280;28056;51.112;0.984;2022-12-07T03:18:56;101264.36;;;4.61;60.36
42411;BME280;28056;51.112;0.984;2022-12-07T03:21:31;101260.51;;;4.66;60.12
42411;BME280;28056;51.112;0.984;2022-12-07T03:24:03;101261.74;;;4.38;60.80
42411;BME280;28056;51.112;0.984;2022-12-07T03:26:34;101259.86;;;4.61;60.20
42411;BME280;28056;51.112;0.984;2022-12-07T03:29:06;101254.27;;;4.37;60.60
42411;BME280;28056;51.112;0.984;2022-12-07T03:31:39;101250.80;;;4.60;60.89
42411;BME280;28056;51.112;0.984;2022-12-07T03:34:12;101249.39;;;4.19;61.55
42411;BME280;28056;51.112;0.984;2022-12-07T03:36:44;101249.13;;;4.15;61.87
42411;BME280;28056;51.112;0.984;2022-12-07T03:39:19;101251.23;;;4.92;60.35
42411;BME280;28056;51.112;0.984;2022-12-07T03:41:50;101251.00;;;4.12;60.53
42411;BME280;28056;51.112;0.984;2022-12-07T03:44:18;101250.33;;;4.52;60.85
42411;BME280;28056;51.112;0.984;2022-12-07T03:46:54;101255.83;;;4.46;60.86
42411;BME280;28056;51.112;0.984;2022-12-07T03:49:25;101259.92;;;4.24;60.87
42411;BME280;28056;51.112;0.984;2022-12-07T03:51:58;101255.77;;;4.53;60.77
42411;BME280;28056;51.112;0.984;2022-12-07T03:54:31;101254.38;;;4.32;60.73
42411;BME280;28056;51.112;0.984;2022-12-07T03:57:02;101257.15;;;4.16;60.83
42411;BME280;28056;51.112;0.984;2022-12-07T03:59:32;101256.69;;;3.95;61.84
42411;BME280;28056;51.112;0.984;2022-12-07T04:02:04;101253.91;;;4.88;60.76
42411;BME280;28056;51.112;0.984;2022-12-07T04:04:32;101253.56;;;4.16;60.97
42411;BME280;28056;51.112;0.984;2022-12-07T04:07:00;101253.80;;;4.16;61.56
42411;BME280;28056;51.112;0.984;2022-12-07T04:09:28;101252.30;;;4.36;61.37
42411;BME280;28056;51.112;0.984;2022-12-07T04:11:55;101251.13;;;4.52;60.49
42411;BME280;28056;51.112;0.984;2022-12-07T04:14:23;101251.73;;;4.55;60.20
42411;BME280;28056;51.112;0.984;2022-12-07T04:16:52;101254.22;;;5.03;59.72
42411;BME280;28056;51.112;0.984;2022-12-07T04:19:23;101245.67;;;4.09;60.25
42411;BME280;28056;51.112;0.984;2022-12-07T04:21:50;101245.52;;;3.90;61.05
42411;BME280;28056;51.112;0.984;2022-12-07T04:24:18;101248.11;;;4.63;59.70
42411;BME280;28056;51.112;0.984;2022-12-07T04:26:46;101251.33;;;4.91;59.21
42411;BME280;28056;51.112;0.984;2022-12-07T04:29:15;101252.42;;;4.62;59.57
42411;BME280;28056;51.112;0.984;2022-12-07T04:31:43;101253.68;;;4.24;60.90
42411;BME280;28056;51.112;0.984;2022-12-07T04:34:12;101249.84;;;4.50;60.21
42411;BME280;28056;51.112;0.984;2022-12-07T04:36:41;101253.61;;;4.64;59.92
42411;BME280;28056;51.112;0.984;2022-12-07T04:39:17;101256.35;;;4.51;59.74
42411;BME280;28056;51.112;0.984;2022-12-07T04:41:44;101255.75;;;4.22;60.18
42411;BME280;28056;51.112;0.984;2022-12-07T04:44:13;101253.98;;;4.33;60.45
42411;BME280;28056;51.112;0.984;2022-12-07T04:46:41;101252.59;;;4.86;59.51
42411;BME280;28056;51.112;0.984;2022-12-07T04:49:10;101249.92;;;4.67;59.41
42411;BME280;28056;51.112;0.984;2022-12-07T04:51:38;101254.97;;;4.80;59.01
42411;BME280;28056;51.112;0.984;2022-12-07T04:54:05;101258.07;;;4.54;59.56
42411;BME280;28056;51.112;0.984;2022-12-07T04:56:33;101258.30;;;4.90;59.00
42411;BME280;28056;51.112;0.984;2022-12-07T04:59:02;101251.67;;;4.67;59.11
42411;BME280;28056;51.112;0.984;2022-12-07T05:01:31;101253.22;;;4.83;58.67
42411;BME280;28056;51.112;0.984;2022-12-07T05:03:58;101252.52;;;4.58;59.14
42411;BME280;28056;51.112;0.984;2022-12-07T05:06:25;101253.23;;;4.77;58.70
42411;BME280;28056;51.112;0.984;2022-12-07T05:08:52;101250.48;;;5.08;58.15
42411;BME280;28056;51.112;0.984;2022-12-07T05:11:19;101252.58;;;5.06;58.14
42411;BME280;28056;51.112;0.984;2022-12-07T05:13:46;101250.99;;;4.44;59.21
42411;BME280;28056;51.112;0.984;2022-12-07T05:16:13;101253.76;;;4.68;59.00
42411;BME280;28056;51.112;0.984;2022-12-07T05:18:40;101252.77;;;4.71;58.79
42411;BME280;28056;51.112;0.984;2022-12-07T05:21:08;101255.13;;;4.47;59.07
42411;BME280;28056;51.112;0.984;2022-12-07T05:23:35;101250.01;;;4.57;58.89
42411;BME280;28056;51.112;0.984;2022-12-07T05:26:03;101252.04;;;4.50;59.11
42411;BME280;28056;51.112;0.984;2022-12-07T05:28:30;101247.22;;;4.81;58.63
42411;BME280;28056;51.112;0.984;2022-12-07T05:30:58;101247.26;;;5.11;57.87
42411;BME280;28056;51.112;0.984;2022-12-07T05:33:25;101241.22;;;4.81;58.38
42411;BME280;28056;51.112;0.984;2022-12-07T05:35:52;101239.21;;;4.71;58.51
42411;BME280;28056;51.112;0.984;2022-12-07T05:38:19;101232.54;;;3.99;60.38
42411;BME280;28056;51.112;0.984;2022-12-07T05:40:46;101231.88;;;4.24;59.80
42411;BME280;28056;51.112;0.984;2022-12-07T05:43:14;101236.32;;;4.38;60.07
42411;BME280;28056;51.112;0.984;2022-12-07T05:45:42;101234.18;;;4.38;59.55
42411;BME280;28056;51.112;0.984;2022-12-07T05:48:09;101235.81;;;4.25;59.96
42411;BME280;28056;51.112;0.984;2022-12-07T05:50:36;101228.44;;;4.14;59.97
42411;BME280;28056;51.112;0.984;2022-12-07T05:53:03;101226.61;;;4.52;59.93
42411;BME280;28056;51.112;0.984;2022-12-07T05:55:30;101218.57;;;4.28;60.28
42411;BME280;28056;51.112;0.984;2022-12-07T05:57:58;101215.67;;;4.15;60.70
42411;BME280;28056;51.112;0.984;2022-12-07T06:00:25;101215.44;;;4.04;61.13
42411;BME280;28056;51.112;0.984;2022-12-07T06:02:52;101214.78;;;3.98;60.94
42411;BME280;28056;51.112;0.984;2022-12-07T06:05:19;101216.40;;;4.27;60.72
42411;BME280;28056;51.112;0.984;2022-12-07T06:07:47;101216.48;;;4.31;61.08
42411;BME280;28056;51.112;0.984;2022-12-07T06:10:14;101219.43;;;4.42;60.60
42411;BME280;28056;51.112;0.984;2022-12-07T06:12:42;101216.15;;;3.89;61.00
42411;BME280;28056;51.112;0.984;2022-12-07T06:15:09;101216.25;;;4.00;61.24
42411;BME280;28056;51.112;0.984;2022-12-07T06:17:37;101217.07;;;4.23;60.80
42411;BME280;28056;51.112;0.984;2022-12-07T06:20:05;101219.37;;;3.74;61.24
42411;BME280;28056;51.112;0.984;2022-12-07T06:22:32;101216.85;;;3.76;61.80
42411;BME280;28056;51.112;0.984;2022-12-07T06:25:00;101222.77;;;3.68;62.28
42411;BME280;28056;51.112;0.984;2022-12-07T06:27:27;101222.98;;;3.61;62.65
42411;BME280;28056;51.112;0.984;2022-12-07T06:29:54;101223.43;;;3.39;63.00
42411;BME280;28056;51.112;0.984;2022-12-07T06:32:21;101219.35;;;3.39;63.24
42411;BME280;28056;51.112;0.984;2022-12-07T06:34:49;101221.29;;;4.03;62.06
42411;BME280;28056;51.112;0.984;2022-12-07T06:37:17;101220.26;;;4.02;61.60
42411;BME280;28056;51.112;0.984;2022-12-07T06:39:44;101216.76;;;4.25;60.96
42411;BME280;28056;51.112;0.984;2022-12-07T06:42:12;101220.30;;;3.84;60.90
42411;BME280;28056;51.112;0.984;2022-12-07T06:44:39;101217.05;;;4.06;61.08
42411;BME280;28056;51.112;0.984;2022-12-07T06:47:07;101213.25;;;4.19;60.27
42411;BME280;28056;51.112;0.984;2022-12-07T06:49:34;101212.65;;;4.28;60.18
42411;BME280;28056;51.112;0.984;2022-12-07T06:52:01;101213.91;;;4.38;59.77
42411;BME280;28056;51.112;0.984;2022-12-07T06:54:29;101214.91;;;4.23;59.90
42411;BME280;28056;51.112;0.984;2022-12-07T06:56:57;101216.30;;;4.46;59.37
42411;BME280;28056;51.112;0.984;2022-12-07T06:59:24;101221.25;;;4.51;59.21
42411;BME280;28056;51.112;0.984;2022-12-07T07:01:51;101222.96;;;4.38;59.28
42411;BME280;28056;51.112;0.984;2022-12-07T07:04:18;101226.06;;;4.47;58.86
42411;BME280;28056;51.112;0.984;2022-12-07T07:06:46;101224.29;;;4.23;58.70
42411;BME280;28056;51.112;0.984;2022-12-07T07:09:13;101229.48;;;4.57;58.59
42411;BME280;28056;51.112;0.984;2022-12-07T07:11:40;101227.89;;;3.77;60.25
42411;BME280;28056;51.112;0.984;2022-12-07T07:14:08;101225.75;;;2.92;61.81
42411;BME280;28056;51.112;0.984;2022-12-07T07:16:35;101227.26;;;3.01;62.35
42411;BME280;28056;51.112;0.984;2022-12-07T07:19:03;101229.60;;;3.20;62.27
42411;BME280;28056;51.112;0.984;2022-12-07T07:21:30;101229.93;;;1.81;65.68
42411;BME280;28056;51.112;0.984;2022-12-07T07:23:58;101233.32;;;2.94;64.87
42411;BME280;28056;51.112;0.984;2022-12-07T07:26:25;101238.67;;;2.33;65.97
42411;BME280;28056;51.112;0.984;2022-12-07T07:28:53;101237.90;;;1.46;68.62
42411;BME280;28056;51.112;0.984;2022-12-07T07:31:20;101234.78;;;1.25;70.19
42411;BME280;28056;51.112;0.984;2022-12-07T07:33:47;101242.27;;;0.19;75.48
42411;BME280;28056;51.112;0.984;2022-12-07T07:36:14;101241.19;;;-0.31;78.82
42411;BME280;28056;51.112;0.984;2022-12-07T07:38:41;101238.29;;;0.25;79.05
42411;BME280;28056;51.112;0.984;2022-12-07T07:41:08;101237.41;;;-0.27;79.94
42411;BME280;28056;51.112;0.984;2022-12-07T07:43:35;101236.95;;;0.06;79.28
42411;BME280;28056;51.112;0.984;2022-12-07T07:46:03;101235.72;;;-0.68;81.58
42411;BME280;28056;51.112;0.984;2022-12-07T07:48:31;101242.60;;;-0.65;83.05
42411;BME280;28056;51.112;0.984;2022-12-07T07:50:58;101245.96;;;-0.90;84.30
42411;BME280;28056;51.112;0.984;2022-12-07T07:53:25;101244.43;;;-0.36;84.29
42411;BME280;28056;51.112;0.984;2022-12-07T07:55:54;101250.75;;;-0.31;83.31
42411;BME280;28056;51.112;0.984;2022-12-07T07:58:21;101248.37;;;0.00;83.35
42411;BME280;28056;51.112;0.984;2022-12-07T08:00:49;101248.40;;;-0.48;83.82
42411;BME280;28056;51.112;0.984;2022-12-07T08:03:16;101248.62;;;-0.62;84.08
42411;BME280;28056;51.112;0.984;2022-12-07T08:05:43;101244.29;;;-0.10;83.27
42411;BME280;28056;51.112;0.984;2022-12-07T08:08:11;101250.88;;;-0.30;83.31
42411;BME280;28056;51.112;0.984;2022-12-07T08:10:39;101256.97;;;-0.45;83.95
42411;BME280;28056;51.112;0.984;2022-12-07T08:13:06;101255.52;;;-0.78;84.15
42411;BME280;28056;51.112;0.984;2022-12-07T08:15:37;101260.89;;;-0.36;83.39
42411;BME280;28056;51.112;0.984;2022-12-07T08:18:04;101261.61;;;-0.21;84.78
42411;BME280;28056;51.112;0.984;2022-12-07T08:20:32;101257.00;;;-0.49;85.29
42411;BME280;28056;51.112;0.984;2022-12-07T08:23:00;101256.02;;;-0.29;85.63
42411;BME280;28056;51.112;0.984;2022-12-07T08:25:28;101252.76;;;-0.78;86.54
42411;BME280;28056;51.112;0.984;2022-12-07T08:27:55;101256.17;;;-0.53;87.13
42411;BME280;28056;51.112;0.984;2022-12-07T08:30:22;101256.58;;;-0.72;87.21
42411;BME280;28056;51.112;0.984;2022-12-07T08:32:49;101263.76;;;-0.48;87.31
42411;BME280;28056;51.112;0.984;2022-12-07T08:35:17;101266.44;;;-0.80;87.08
42411;BME280;28056;51.112;0.984;2022-12-07T08:37:45;101263.84;;;-0.82;87.84
42411;BME280;28056;51.112;0.984;2022-12-07T08:40:13;101264.07;;;-0.43;86.50
42411;BME280;28056;51.112;0.984;2022-12-07T08:42:41;101263.68;;;-0.66;86.58
42411;BME280;28056;51.112;0.984;2022-12-07T08:45:11;101260.70;;;-0.95;88.42
42411;BME280;28056;51.112;0.984;2022-12-07T08:47:43;101263.78;;;-0.86;88.69
42411;BME280;28056;51.112;0.984;2022-12-07T08:50:12;101263.31;;;-0.69;88.12
42411;BME280;28056;51.112;0.984;2022-12-07T08:52:41;101265.95;;;-0.66;88.16
42411;BME280;28056;51.112;0.984;2022-12-07T08:55:11;101269.19;;;-0.25;87.37
42411;BME280;28056;51.112;0.984;2022-12-07T08:57:39;101270.98;;;-0.61;87.38
42411;BME280;28056;51.112;0.984;2022-12-07T09:00:07;101267.09;;;-0.79;88.19
42411;BME280;28056;51.112;0.984;2022-12-07T09:02:35;101268.18;;;-0.77;89.25
42411;BME280;28056;51.112;0.984;2022-12-07T09:05:03;101269.67;;;-0.31;87.21
42411;BME280;28056;51.112;0.984;2022-12-07T09:07:32;101266.18;;;-0.76;87.39
42411;BME280;28056;51.112;0.984;2022-12-07T09:10:01;101265.16;;;-0.77;87.00
42411;BME280;28056;51.112;0.984;2022-12-07T09:12:28;101264.03;;;-0.76;87.35
42411;BME280;28056;51.112;0.984;2022-12-07T09:14:55;101265.50;;;-0.41;87.29
42411;BME280;28056;51.112;0.984;2022-12-07T09:17:23;101269.30;;;-0.04;86.06
42411;BME280;28056;51.112;0.984;2022-12-07T09:19:50;101270.68;;;-0.02;84.33
42411;BME280;28056;51.112;0.984;2022-12-07T09:22:17;101270.62;;;-0.18;83.42
42411;BME280;28056;51.112;0.984;2022-12-07T09:24:45;101266.00;;;0.05;83.38
42411;BME280;28056;51.112;0.984;2022-12-07T09:27:13;101262.09;;;-0.46;83.74
42411;BME280;28056;51.112;0.984;2022-12-07T09:29:40;101261.11;;;-0.06;83.85
42411;BME280;28056;51.112;0.984;2022-12-07T09:32:07;101256.67;;;-0.20;85.29
42411;BME280;28056;51.112;0.984;2022-12-07T09:34:35;101255.46;;;-0.27;85.95
42411;BME280;28056;51.112;0.984;2022-12-07T09:37:02;101259.07;;;-0.21;86.25
42411;BME280;28056;51.112;0.984;2022-12-07T09:39:30;101260.79;;;-0.13;84.89
42411;BME280;28056;51.112;0.984;2022-12-07T09:41:58;101255.49;;;-0.19;84.75
42411;BME280;28056;51.112;0.984;2022-12-07T09:44:26;101258.80;;;-0.03;85.18
42411;BME280;28056;51.112;0.984;2022-12-07T09:46:55;101256.43;;;-0.08;85.14
42411;BME280;28056;51.112;0.984;2022-12-07T09:49:25;101260.39;;;-0.02;84.89
42411;BME280;28056;51.112;0.984;2022-12-07T09:52:16;101262.39;;;-0.36;85.39
42411;BME280;28056;51.112;0.984;2022-12-07T09:54:46;101256.93;;;-0.11;85.45
42411;BME280;28056;51.112;0.984;2022-12-07T09:57:15;101255.80;;;0.35;83.05
42411;BME280;28056;51.112;0.984;2022-12-07T09:59:43;101253.38;;;0.55;83.05
42411;BME280;28056;51.112;0.984;2022-12-07T10:02:35;101246.73;;;0.21;83.18
42411;BME280;28056;51.112;0.984;2022-12-07T10:05:05;101246.33;;;0.96;82.47
42411;BME280;28056;51.112;0.984;2022-12-07T10:07:34;101248.25;;;0.80;81.22
42411;BME280;28056;51.112;0.984;2022-12-07T10:10:04;101248.75;;;0.65;82.81
42411;BME280;28056;51.112;0.984;2022-12-07T10:12:53;101239.13;;;0.36;83.19
42411;BME280;28056;51.112;0.984;2022-12-07T10:15:21;101236.80;;;0.45;83.62
42411;BME280;28056;51.112;0.984;2022-12-07T10:17:51;101232.83;;;0.73;82.57
42411;BME280;28056;51.112;0.984;2022-12-07T10:20:22;101232.73;;;1.16;81.30
42411;BME280;28056;51.112;0.984;2022-12-07T10:23:01;101231.93;;;0.74;79.47
42411;BME280;28056;51.112;0.984;2022-12-07T10:25:31;101222.02;;;1.57;78.54
42411;BME280;28056;51.112;0.984;2022-12-07T10:28:01;101222.80;;;0.31;80.44
42411;BME280;28056;51.112;0.984;2022-12-07T10:30:30;101221.25;;;0.58;80.46
42411;BME280;28056;51.112;0.984;2022-12-07T10:32:59;101208.14;;;1.43;77.93
42411;BME280;28056;51.112;0.984;2022-12-07T10:35:28;101210.91;;;0.37;79.13
42411;BME280;28056;51.112;0.984;2022-12-07T10:37:58;101206.69;;;1.02;81.35
42411;BME280;28056;51.112;0.984;2022-12-07T10:40:30;101203.53;;;1.20;79.24
42411;BME280;28056;51.112;0.984;2022-12-07T10:43:02;101204.94;;;1.46;78.23
42411;BME280;28056;51.112;0.984;2022-12-07T10:45:30;101204.65;;;0.69;79.05
42411;BME280;28056;51.112;0.984;2022-12-07T10:48:04;101200.82;;;0.36;80.76
42411;BME280;28056;51.112;0.984;2022-12-07T10:50:48;101198.22;;;0.26;81.51
42411;BME280;28056;51.112;0.984;2022-12-07T10:53:28;101193.04;;;0.57;82.47
42411;BME280;28056;51.112;0.984;2022-12-07T10:56:21;101184.22;;;0.74;81.86
42411;BME280;28056;51.112;0.984;2022-12-07T10:59:08;101178.22;;;0.53;82.56
42411;BME280;28056;51.112;0.984;2022-12-07T11:01:48;101171.59;;;1.21;80.25
42411;BME280;28056;51.112;0.984;2022-12-07T11:04:28;101167.42;;;1.53;80.16
42411;BME280;28056;51.112;0.984;2022-12-07T11:07:02;101166.49;;;1.16;78.36
42411;BME280;28056;51.112;0.984;2022-12-07T11:09:48;101167.96;;;0.45;80.25
42411;BME280;28056;51.112;0.984;2022-12-07T11:12:26;101164.75;;;0.82;79.41
42411;BME280;28056;51.112;0.984;2022-12-07T11:15:01;101169.52;;;0.67;79.70
42411;BME280;28056;51.112;0.984;2022-12-07T11:17:38;101163.95;;;0.54;79.51
42411;BME280;28056;51.112;0.984;2022-12-07T11:20:19;101161.20;;;0.82;80.53
42411;BME280;28056;51.112;0.984;2022-12-07T11:22:57;101163.75;;;0.66;79.19
42411;BME280;28056;51.112;0.984;2022-12-07T11:25:32;101161.10;;;0.97;78.61
42411;BME280;28056;51.112;0.984;2022-12-07T11:28:13;101156.44;;;1.33;77.77
42411;BME280;28056;51.112;0.984;2022-12-07T11:30:48;101155.34;;;0.39;77.90
42411;BME280;28056;51.112;0.984;2022-12-07T11:33:24;101157.49;;;0.89;77.98
42411;BME280;28056;51.112;0.984;2022-12-07T11:36:04;101154.23;;;0.43;78.81
42411;BME280;28056;51.112;0.984;2022-12-07T11:38:42;101152.64;;;0.87;79.00
42411;BME280;28056;51.112;0.984;2022-12-07T11:41:12;101152.99;;;0.58;78.45
42411;BME280;28056;51.112;0.984;2022-12-07T11:43:52;101149.02;;;0.40;79.45
42411;BME280;28056;51.112;0.984;2022-12-07T11:46:24;101147.48;;;0.42;80.22
42411;BME280;28056;51.112;0.984;2022-12-07T11:49:01;101140.08;;;0.93;80.82
42411;BME280;28056;51.112;0.984;2022-12-07T11:51:33;101140.25;;;0.78;79.67
42411;BME280;28056;51.112;0.984;2022-12-07T11:54:05;101141.21;;;0.42;80.67
42411;BME280;28056;51.112;0.984;2022-12-07T11:56:38;101133.06;;;0.40;80.61
42411;BME280;28056;51.112;0.984;2022-12-07T11:59:11;101137.58;;;0.18;80.38
42411;BME280;28056;51.112;0.984;2022-12-07T12:01:50;101137.32;;;0.40;81.17
42411;BME280;28056;51.112;0.984;2022-12-07T12:04:29;101130.08;;;0.73;80.94
42411;BME280;28056;51.112;0.984;2022-12-07T12:06:58;101130.06;;;0.81;80.52
42411;BME280;28056;51.112;0.984;2022-12-07T12:09:30;101131.14;;;0.15;82.19
42411;BME280;28056;51.112;0.984;2022-12-07T12:12:20;101134.69;;;0.11;82.85
42411;BME280;28056;51.112;0.984;2022-12-07T12:14:59;101133.40;;;0.45;81.42
42411;BME280;28056;51.112;0.984;2022-12-07T12:17:57;101125.36;;;0.61;81.94
42411;BME280;28056;51.112;0.984;2022-12-07T12:20:32;101112.38;;;0.68;79.47
42411;BME280;28056;51.112;0.984;2022-12-07T12:23:07;101111.39;;;0.59;78.74
42411;BME280;28056;51.112;0.984;2022-12-07T12:25:40;101105.86;;;0.47;79.10
42411;BME280;28056;51.112;0.984;2022-12-07T12:28:20;101110.14;;;-0.06;80.17
42411;BME280;28056;51.112;0.984;2022-12-07T12:31:05;101104.66;;;0.32;80.06
42411;BME280;28056;51.112;0.984;2022-12-07T12:33:33;101101.40;;;0.54;80.00
42411;BME280;28056;51.112;0.984;2022-12-07T12:36:21;101104.46;;;-0.09;81.12
42411;BME280;28056;51.112;0.984;2022-12-07T12:38:50;101101.68;;;0.19;82.21
42411;BME280;28056;51.112;0.984;2022-12-07T12:42:44;101096.12;;;0.01;81.77
42411;BME280;28056;51.112;0.984;2022-12-07T12:45:22;101094.54;;;-0.26;82.86
42411;BME280;28056;51.112;0.984;2022-12-07T12:47:55;101095.03;;;0.01;82.45
42411;BME280;28056;51.112;0.984;2022-12-07T12:50:25;101092.87;;;0.33;83.35
42411;BME280;28056;51.112;0.984;2022-12-07T12:52:57;101085.22;;;0.81;81.27
42411;BME280;28056;51.112;0.984;2022-12-07T12:55:48;101082.55;;;0.77;80.04
42411;BME280;28056;51.112;0.984;2022-12-07T12:58:36;101075.16;;;0.41;79.43
42411;BME280;28056;51.112;0.984;2022-12-07T13:01:42;101076.04;;;0.33;80.98
42411;BME280;28056;51.112;0.984;2022-12-07T13:06:34;101071.14;;;0.63;81.32
42411;BME280;28056;51.112;0.984;2022-12-07T13:09:02;101071.17;;;0.21;82.06
42411;BME280;28056;51.112;0.984;2022-12-07T13:11:33;101068.42;;;0.84;80.75
42411;BME280;28056;51.112;0.984;2022-12-07T13:14:43;101065.96;;;0.93;79.95
42411;BME280;28056;51.112;0.984;2022-12-07T13:17:56;101067.34;;;1.79;77.20
42411;BME280;28056;51.112;0.984;2022-12-07T13:20:56;101062.28;;;3.15;72.81
42411;BME280;28056;51.112;0.984;2022-12-07T13:23:26;101062.70;;;3.71;69.01
42411;BME280;28056;51.112;0.984;2022-12-07T13:26:02;101059.74;;;3.83;68.15